Time;durP1;ratioP1;P1;durP2;ratioP2;P2;SDS_P1;SDS_P2;PMS_P1;PMS_P2;Temp;Humidity;BMP_temperature;BMP_pressure;BME280_temperature;BME280_humidity;BME280_pressure;Samples;Min_cycle;Max_cycle;Signal;HPM_P1;HPM_P2
2023/05/07 00:00:06;;;;;;;40.40;32.10;;;12.60;99.90;;;;;;4977144;28;20046;-70
2023/05/07 00:02:32;;;;;;;39.15;29.80;;;12.60;99.90;;;;;;4980528;28;20050;-70
2023/05/07 00:04:58;;;;;;;46.08;32.10;;;12.60;99.90;;;;;;4975731;28;20050;-70
2023/05/07 00:07:24;;;;;;;49.63;34.08;;;12.50;99.90;;;;;;4987868;28;20046;-70
2023/05/07 00:09:50;;;;;;;43.78;33.35;;;12.50;99.90;;;;;;4968921;28;20051;-71
2023/05/07 00:12:16;;;;;;;51.28;36.33;;;12.50;99.90;;;;;;4986029;28;20115;-71
2023/05/07 00:14:42;;;;;;;45.70;33.10;;;12.50;99.90;;;;;;4987353;28;20415;-70
2023/05/07 00:17:07;;;;;;;52.88;34.28;;;12.40;99.90;;;;;;4982908;28;20082;-70
2023/05/07 00:19:33;;;;;;;54.53;34.58;;;12.50;99.90;;;;;;4987631;28;20042;-70
2023/05/07 00:21:58;;;;;;;49.65;35.58;;;12.50;99.90;;;;;;4987820;28;20509;-70
2023/05/07 00:24:24;;;;;;;41.05;32.42;;;12.40;99.90;;;;;;4988201;28;20042;-70
2023/05/07 00:26:50;;;;;;;45.47;34.42;;;12.40;99.90;;;;;;4986404;28;20517;-70
2023/05/07 00:29:16;;;;;;;44.45;32.53;;;12.30;99.90;;;;;;4974022;28;20523;-70
2023/05/07 00:31:41;;;;;;;48.53;34.55;;;12.30;99.90;;;;;;4988218;28;20042;-70
2023/05/07 00:34:07;;;;;;;46.30;33.70;;;12.30;99.90;;;;;;4985986;28;20125;-70
2023/05/07 00:36:33;;;;;;;59.90;35.90;;;12.20;99.90;;;;;;4977785;28;20049;-70
2023/05/07 00:39:00;;;;;;;47.45;34.42;;;12.20;99.90;;;;;;4988060;28;20215;-70
2023/05/07 00:41:26;;;;;;;51.25;36.47;;;12.20;99.90;;;;;;4981095;28;20062;-70
2023/05/07 00:43:52;;;;;;;49.70;36.42;;;12.20;99.90;;;;;;4991905;28;20042;-70
2023/05/07 00:46:20;;;;;;;44.88;33.88;;;12.10;99.90;;;;;;4987784;28;20047;-70
2023/05/07 00:48:47;;;;;;;59.03;36.40;;;12.10;99.90;;;;;;4989213;28;20047;-70
2023/05/07 00:51:13;;;;;;;47.28;36.35;;;12.10;99.90;;;;;;4980593;28;20046;-70
2023/05/07 00:53:39;;;;;;;44.15;33.45;;;12.00;99.90;;;;;;4991431;28;20057;-71
2023/05/07 00:56:06;;;;;;;47.65;34.67;;;12.00;99.90;;;;;;4982774;28;20672;-70
2023/05/07 00:58:33;;;;;;;52.25;36.65;;;11.90;99.90;;;;;;4988709;28;20058;-70
2023/05/07 01:00:59;;;;;;;54.00;37.28;;;11.90;99.90;;;;;;4983061;28;20050;-70
2023/05/07 01:03:25;;;;;;;51.15;36.47;;;11.90;99.90;;;;;;4976319;28;20519;-70
2023/05/07 01:05:52;;;;;;;49.72;36.95;;;11.90;99.90;;;;;;4991184;28;20045;-70
2023/05/07 01:08:18;;;;;;;59.80;38.20;;;11.80;99.90;;;;;;4991635;28;20046;-70
2023/05/07 01:10:45;;;;;;;52.88;38.13;;;11.80;99.90;;;;;;4991196;28;20034;-70
2023/05/07 01:13:14;;;;;;;53.75;38.22;;;11.80;99.90;;;;;;4989954;28;20134;-69
2023/05/07 01:15:41;;;;;;;48.30;37.20;;;11.80;99.90;;;;;;4989967;28;20050;-70
2023/05/07 01:18:07;;;;;;;52.08;37.45;;;11.70;99.90;;;;;;4992417;28;20508;-70
2023/05/07 01:20:32;;;;;;;56.90;40.05;;;11.70;99.90;;;;;;4990142;28;20062;-70
2023/05/07 01:23:01;;;;;;;;;;;11.70;99.90;;;;;;4991456;28;20085;-70
2023/05/07 01:25:27;;;;;;;54.42;38.28;;;11.60;99.90;;;;;;4990398;28;20370;-70
2023/05/07 01:27:53;;;;;;;53.40;38.78;;;11.60;99.90;;;;;;4990445;28;20080;-70
2023/05/07 01:30:20;;;;;;;62.65;40.70;;;11.50;99.90;;;;;;4990536;28;20054;-70
2023/05/07 01:33:04;;;;;;;58.88;40.70;;;11.50;99.90;;;;;;4988584;28;20054;-70
2023/05/07 01:35:38;;;;;;;57.13;41.63;;;11.50;99.90;;;;;;4984916;28;20058;-70
2023/05/07 01:38:05;;;;;;;60.92;41.22;;;11.40;99.90;;;;;;4990648;28;20946;-70
2023/05/07 01:40:31;;;;;;;64.33;42.70;;;11.40;99.90;;;;;;4985234;28;20219;-70
2023/05/07 01:42:57;;;;;;;65.53;41.85;;;11.40;99.90;;;;;;4987861;28;20057;-70
2023/05/07 01:45:23;;;;;;;64.80;42.58;;;11.40;99.90;;;;;;4986843;28;20053;-70
2023/05/07 01:47:50;;;;;;;63.08;42.08;;;11.30;99.90;;;;;;4990500;28;20096;-70
2023/05/07 01:50:18;;;;;;;73.28;44.33;;;11.30;99.90;;;;;;4984736;28;20050;-70
2023/05/07 01:52:43;;;;;;;;;;;11.30;99.90;;;;;;4980150;28;20061;-70
2023/05/07 01:55:09;;;;;;;63.92;44.17;;;11.20;99.90;;;;;;4988796;28;19926;-70
2023/05/07 01:57:35;;;;;;;61.15;41.92;;;11.20;99.90;;;;;;4980805;28;20081;-70
2023/05/07 02:00:02;;;;;;;62.35;44.72;;;11.20;99.90;;;;;;4986894;28;20077;-70
2023/05/07 02:02:28;;;;;;;75.50;45.17;;;11.20;99.90;;;;;;4991127;28;20057;-70
2023/05/07 02:04:54;;;;;;;65.13;42.97;;;11.20;99.90;;;;;;4976799;28;20055;-70
2023/05/07 02:07:19;;;;;;;69.35;47.78;;;11.10;99.90;;;;;;4988241;28;20101;-70
2023/05/07 02:09:45;;;;;;;72.18;47.35;;;11.10;99.90;;;;;;4989650;28;20049;-70
2023/05/07 02:12:11;;;;;;;70.93;45.97;;;11.10;99.90;;;;;;4985688;28;20041;-70
2023/05/07 02:14:36;;;;;;;75.55;48.90;;;11.10;99.90;;;;;;4978351;28;20045;-70
2023/05/07 02:17:02;;;;;;;74.60;47.92;;;11.10;99.90;;;;;;4976445;28;20498;-70
2023/05/07 02:19:27;;;;;;;70.47;47.90;;;11.10;99.90;;;;;;4989287;28;20046;-70
2023/05/07 02:21:54;;;;;;;78.15;51.55;;;11.10;99.90;;;;;;4981067;28;20046;-70
2023/05/07 02:24:19;;;;;;;75.18;49.53;;;11.00;99.90;;;;;;4988663;28;20687;-70
2023/05/07 02:26:45;;;;;;;85.78;48.58;;;11.00;99.90;;;;;;4986629;28;20050;-70
2023/05/07 02:29:11;;;;;;;77.13;49.15;;;11.00;99.90;;;;;;4991166;28;20068;-70
2023/05/07 02:31:36;;;;;;;78.70;50.75;;;11.00;99.90;;;;;;4988351;28;20498;-70
2023/05/07 02:34:02;;;;;;;81.72;51.20;;;11.00;99.90;;;;;;4989395;28;20038;-70
2023/05/07 02:36:27;;;;;;;79.07;53.47;;;10.90;99.90;;;;;;4978770;28;20073;-70
2023/05/07 02:38:54;;;;;;;80.88;53.80;;;10.90;99.90;;;;;;4985194;28;20073;-70
2023/05/07 02:41:20;;;;;;;76.35;52.35;;;10.90;99.90;;;;;;4985840;28;20098;-69
2023/05/07 02:43:46;;;;;;;82.05;56.22;;;10.90;99.90;;;;;;4988623;28;20046;-70
2023/05/07 02:46:12;;;;;;;80.45;53.45;;;10.90;99.90;;;;;;4989598;28;20083;-70
2023/05/07 02:48:37;;;;;;;90.43;55.50;;;10.90;99.90;;;;;;4970881;28;20085;-70
2023/05/07 02:51:04;;;;;;;92.28;58.03;;;10.90;99.90;;;;;;4988191;28;20057;-69
2023/05/07 02:53:30;;;;;;;89.85;53.60;;;10.90;99.90;;;;;;4985040;28;20062;-70
2023/05/07 02:55:57;;;;;;;83.95;54.60;;;10.90;99.90;;;;;;4983342;28;20046;-70
2023/05/07 02:58:23;;;;;;;83.15;56.33;;;10.90;99.90;;;;;;4988154;28;20046;-70
2023/05/07 03:00:49;;;;;;;82.22;53.97;;;10.90;99.90;;;;;;4988974;28;20521;-70
2023/05/07 03:03:15;;;;;;;87.78;55.35;;;10.80;99.90;;;;;;4987788;28;20097;-70
2023/05/07 03:05:41;;;;;;;85.53;57.00;;;10.80;99.90;;;;;;4988989;28;20038;-70
2023/05/07 03:08:07;;;;;;;93.45;57.58;;;10.80;99.90;;;;;;4985759;28;20046;-70
2023/05/07 03:10:33;;;;;;;86.63;55.95;;;10.90;99.90;;;;;;4981756;28;20101;-70
2023/05/07 03:13:01;;;;;;;82.68;54.53;;;10.80;99.90;;;;;;4982414;28;20058;-70
2023/05/07 03:15:26;;;;;;;107.50;60.25;;;10.80;99.90;;;;;;4986220;28;20054;-71
2023/05/07 03:17:53;;;;;;;93.57;56.58;;;10.80;99.90;;;;;;4987362;28;20055;-71
2023/05/07 03:20:19;;;;;;;93.38;58.88;;;10.80;99.90;;;;;;4981322;28;20093;-70
2023/05/07 03:22:44;;;;;;;97.32;57.95;;;10.80;99.90;;;;;;4974384;28;20507;-70
2023/05/07 03:25:10;;;;;;;86.80;57.33;;;10.80;99.90;;;;;;4970606;28;20053;-71
2023/05/07 03:27:37;;;;;;;90.65;56.40;;;10.80;99.90;;;;;;4981506;28;20444;-70
2023/05/07 03:30:04;;;;;;;90.47;55.42;;;10.70;99.90;;;;;;4983941;28;20411;-70
2023/05/07 03:32:30;;;;;;;92.85;56.17;;;10.70;99.90;;;;;;4986041;28;20817;-70
2023/05/07 03:34:56;;;;;;;94.68;57.83;;;10.70;99.90;;;;;;4988453;28;20578;-70
2023/05/07 03:37:22;;;;;;;93.55;55.65;;;10.70;99.90;;;;;;4984140;28;20061;-70
2023/05/07 03:39:47;;;;;;;81.70;52.22;;;10.70;99.90;;;;;;4987934;28;20043;-70
2023/05/07 03:42:14;;;;;;;76.95;51.38;;;10.70;99.90;;;;;;4987971;28;20053;-70
2023/05/07 03:44:40;;;;;;;79.13;50.83;;;10.70;99.90;;;;;;4986300;28;20055;-70
2023/05/07 03:47:06;;;;;;;88.38;53.35;;;10.60;99.90;;;;;;4983024;28;20042;-70
2023/05/07 03:49:31;;;;;;;78.70;50.65;;;10.70;99.90;;;;;;4988290;28;20065;-70
2023/05/07 03:51:57;;;;;;;74.70;51.63;;;10.70;99.90;;;;;;4987573;28;20384;-70
2023/05/07 03:54:23;;;;;;;79.18;53.85;;;10.70;99.90;;;;;;4987034;28;20042;-70
2023/05/07 03:56:48;;;;;;;82.50;53.22;;;10.70;99.90;;;;;;4986225;28;20049;-70
2023/05/07 03:59:14;;;;;;;76.45;52.65;;;10.70;99.90;;;;;;4985875;28;20387;-70
2023/05/07 04:01:40;;;;;;;81.88;50.53;;;10.70;99.90;;;;;;4980209;28;20391;-70
2023/05/07 04:04:05;;;;;;;69.72;49.88;;;10.70;99.90;;;;;;4983962;28;20046;-70
2023/05/07 04:06:32;;;;;;;85.85;55.78;;;10.70;99.90;;;;;;4987591;28;20470;-70
2023/05/07 04:08:58;;;;;;;75.20;49.47;;;10.70;99.90;;;;;;4985911;28;20047;-70
2023/05/07 04:11:24;;;;;;;74.63;50.90;;;10.70;99.90;;;;;;4988144;28;20065;-70
2023/05/07 04:13:50;;;;;;;82.63;51.35;;;10.70;99.90;;;;;;4987949;28;20050;-70
2023/05/07 04:16:16;;;;;;;71.78;49.03;;;10.60;99.90;;;;;;4984355;28;20381;-70
2023/05/07 04:18:41;;;;;;;73.47;49.25;;;10.70;99.90;;;;;;4990964;28;20180;-70
2023/05/07 04:21:17;;;;;;;79.00;51.47;;;10.70;99.90;;;;;;4986614;28;20098;-70
2023/05/07 04:23:43;;;;;;;67.93;46.67;;;10.60;99.90;;;;;;4992033;28;20050;-70
2023/05/07 04:26:09;;;;;;;71.28;46.97;;;10.70;99.90;;;;;;4988504;28;20064;-70
2023/05/07 04:28:35;;;;;;;69.20;48.58;;;10.60;99.90;;;;;;4994936;28;20089;-70
2023/05/07 04:31:01;;;;;;;66.95;47.00;;;10.60;99.90;;;;;;4993664;28;20054;-70
2023/05/07 04:33:26;;;;;;;73.53;48.88;;;10.60;99.90;;;;;;4989002;28;20046;-69
2023/05/07 04:35:52;;;;;;;69.78;46.80;;;10.60;99.90;;;;;;4980783;28;20050;-70
2023/05/07 04:38:18;;;;;;;75.30;48.25;;;10.60;99.90;;;;;;4993590;28;20050;-70
2023/05/07 04:40:44;;;;;;;69.20;46.00;;;10.60;99.90;;;;;;4992611;28;20483;-70
2023/05/07 04:43:10;;;;;;;74.88;46.70;;;10.60;99.90;;;;;;4985161;28;20125;-70
2023/05/07 04:45:36;;;;;;;76.50;47.55;;;10.60;99.90;;;;;;4992982;28;20126;-70
2023/05/07 04:48:02;;;;;;;65.38;45.25;;;10.60;99.90;;;;;;4986852;28;20046;-70
2023/05/07 04:50:28;;;;;;;65.55;47.38;;;10.60;99.90;;;;;;4993424;28;20073;-70
2023/05/07 04:52:53;;;;;;;60.03;44.58;;;10.60;99.90;;;;;;4993788;28;20044;-70
2023/05/07 04:55:19;;;;;;;64.22;45.90;;;10.70;99.90;;;;;;4994162;28;20054;-70
2023/05/07 04:57:45;;;;;;;68.28;45.10;;;10.70;99.90;;;;;;4993821;28;20054;-70
2023/05/07 05:00:14;;;;;;;71.22;47.83;;;10.70;99.90;;;;;;4988512;28;20049;-70
2023/05/07 05:02:40;;;;;;;71.72;44.05;;;10.70;99.90;;;;;;4987101;28;20164;-70
2023/05/07 05:05:07;;;;;;;70.40;47.60;;;10.70;99.90;;;;;;4994803;28;20129;-70
2023/05/07 05:07:33;;;;;;;56.95;41.20;;;10.70;99.90;;;;;;4995012;28;20050;-70
2023/05/07 05:09:59;;;;;;;64.88;46.35;;;10.70;99.90;;;;;;4994444;28;20046;-70
2023/05/07 05:12:25;;;;;;;68.93;47.97;;;10.70;99.90;;;;;;4992697;28;20046;-70
2023/05/07 05:14:51;;;;;;;70.30;44.45;;;10.70;99.90;;;;;;4993965;28;20046;-70
2023/05/07 05:17:16;;;;;;;69.55;44.80;;;10.70;99.90;;;;;;4990004;28;20050;-70
2023/05/07 05:19:42;;;;;;;66.25;43.00;;;10.80;99.90;;;;;;4992139;28;20101;-70
2023/05/07 05:22:07;;;;;;;56.92;41.97;;;10.80;99.90;;;;;;4992099;28;20089;-70
2023/05/07 05:24:33;;;;;;;61.33;42.92;;;10.70;99.90;;;;;;4975857;28;20050;-70
2023/05/07 05:27:02;;;;;;;61.88;45.03;;;10.80;99.90;;;;;;4991392;28;20101;-70
2023/05/07 05:29:28;;;;;;;65.00;43.97;;;10.80;99.90;;;;;;4981437;28;20047;-70
2023/05/07 05:31:53;;;;;;;67.43;44.10;;;10.80;99.90;;;;;;4985292;28;20050;-70
2023/05/07 05:34:19;;;;;;;60.70;42.40;;;10.80;99.90;;;;;;4988281;28;20066;-70
2023/05/07 05:36:45;;;;;;;60.33;41.90;;;10.80;99.90;;;;;;4985021;28;20507;-70
2023/05/07 05:39:11;;;;;;;59.80;42.90;;;10.80;99.90;;;;;;4990868;28;20829;-70
2023/05/07 05:41:37;;;;;;;61.72;42.92;;;10.80;99.90;;;;;;4991129;28;20061;-70
2023/05/07 05:44:02;;;;;;;67.15;46.00;;;10.80;99.90;;;;;;4989629;28;20085;-70
2023/05/07 05:46:28;;;;;;;63.50;43.53;;;10.80;99.90;;;;;;4989831;28;20046;-69
2023/05/07 05:48:54;;;;;;;60.47;43.20;;;10.90;99.90;;;;;;4973550;28;20042;-70
2023/05/07 05:51:21;;;;;;;60.75;41.92;;;10.90;99.90;;;;;;4990513;28;20061;-70
2023/05/07 05:53:46;;;;;;;71.75;44.70;;;10.90;99.90;;;;;;4983162;28;20058;-70
2023/05/07 05:56:12;;;;;;;67.47;46.38;;;10.90;99.90;;;;;;4988540;28;20050;-70
2023/05/07 05:58:38;;;;;;;61.20;44.13;;;10.90;99.90;;;;;;4982885;28;20051;-70
2023/05/07 06:01:05;;;;;;;57.22;42.65;;;11.00;99.90;;;;;;4988161;28;20069;-69
2023/05/07 06:03:32;;;;;;;61.97;44.72;;;10.90;99.90;;;;;;4989918;28;20419;-69
2023/05/07 06:05:58;;;;;;;58.10;40.53;;;11.00;99.90;;;;;;4988251;28;20065;-69
2023/05/07 06:08:23;;;;;;;60.58;42.67;;;11.00;99.90;;;;;;4989648;28;20046;-69
2023/05/07 06:10:49;;;;;;;71.43;45.63;;;11.00;99.90;;;;;;4985231;28;20099;-69
2023/05/07 06:13:15;;;;;;;60.88;44.15;;;11.00;99.90;;;;;;4984653;28;20092;-70
2023/05/07 06:15:41;;;;;;;67.85;45.90;;;11.10;99.90;;;;;;4981985;28;20082;-70
2023/05/07 06:18:06;;;;;;;62.58;44.03;;;11.10;99.90;;;;;;4982476;28;20192;-69
2023/05/07 06:20:32;;;;;;;64.40;46.70;;;11.20;99.90;;;;;;4982509;28;20450;-69
2023/05/07 06:22:58;;;;;;;60.40;43.80;;;11.20;99.90;;;;;;4982814;28;20062;-69
2023/05/07 06:25:23;;;;;;;62.30;44.63;;;11.20;99.90;;;;;;4979001;28;20053;-69
2023/05/07 06:27:49;;;;;;;61.60;45.38;;;11.20;99.90;;;;;;4986103;28;20132;-69
2023/05/07 06:30:15;;;;;;;68.00;44.30;;;11.20;99.90;;;;;;4982246;28;20105;-69
2023/05/07 06:32:41;;;;;;;63.38;44.65;;;11.30;99.90;;;;;;4963465;28;20127;-69
2023/05/07 06:35:07;;;;;;;69.30;46.13;;;11.30;99.90;;;;;;4988048;28;20070;-69
2023/05/07 06:37:32;;;;;;;73.47;44.92;;;11.30;99.90;;;;;;4989295;28;20078;-69
2023/05/07 06:39:58;;;;;;;63.22;44.45;;;11.30;99.90;;;;;;4988882;28;20054;-69
2023/05/07 06:42:23;;;;;;;67.68;44.72;;;11.30;99.90;;;;;;4988877;28;20404;-69
2023/05/07 06:44:49;;;;;;;59.70;43.45;;;11.30;99.90;;;;;;4983975;28;20042;-69
2023/05/07 06:47:15;;;;;;;62.30;44.75;;;11.30;99.90;;;;;;4983453;28;20415;-69
2023/05/07 06:49:40;;;;;;;63.08;44.45;;;11.30;99.90;;;;;;4985949;28;20085;-69
2023/05/07 06:52:06;;;;;;;65.30;42.78;;;11.20;99.90;;;;;;4981392;28;20050;-69
2023/05/07 06:54:32;;;;;;;63.50;43.97;;;11.30;99.90;;;;;;4985185;28;20607;-69
2023/05/07 06:56:57;;;;;;;63.67;42.88;;;11.20;99.90;;;;;;4982768;28;20756;-69
2023/05/07 06:59:24;;;;;;;67.70;47.30;;;11.20;99.90;;;;;;4980212;28;20106;-69
2023/05/07 07:01:49;;;;;;;64.05;43.65;;;11.20;99.90;;;;;;4985521;28;20042;-69
2023/05/07 07:04:15;;;;;;;65.88;44.03;;;11.20;99.90;;;;;;4982455;28;20109;-69
2023/05/07 07:06:41;;;;;;;64.10;44.30;;;11.20;99.90;;;;;;4987459;28;20117;-69
2023/05/07 07:09:06;;;;;;;66.82;45.22;;;11.20;99.90;;;;;;4988586;28;20046;-69
2023/05/07 07:11:32;;;;;;;72.47;46.92;;;11.20;99.90;;;;;;4988639;28;20057;-70
2023/05/07 07:13:58;;;;;;;71.32;46.45;;;11.20;99.90;;;;;;4987903;28;20056;-69
2023/05/07 07:16:24;;;;;;;71.53;46.42;;;11.20;99.90;;;;;;4988106;28;20054;-69
2023/05/07 07:18:50;;;;;;;60.42;42.95;;;11.30;99.90;;;;;;4987208;28;20096;-69
2023/05/07 07:21:16;;;;;;;72.43;45.13;;;11.30;99.90;;;;;;4988339;28;20086;-69
2023/05/07 07:23:42;;;;;;;66.60;44.30;;;11.40;99.90;;;;;;4983515;28;20076;-69
2023/05/07 07:26:07;;;;;;;67.65;44.97;;;11.40;99.90;;;;;;4980096;28;20112;-69
2023/05/07 07:28:33;;;;;;;67.15;45.83;;;11.50;99.90;;;;;;4986575;28;20093;-69
2023/05/07 07:30:59;;;;;;;65.43;46.80;;;11.60;99.90;;;;;;4985085;28;20062;-69
2023/05/07 07:33:24;;;;;;;65.28;44.60;;;11.60;99.90;;;;;;4983584;28;20125;-69
2023/05/07 07:35:50;;;;;;;73.13;47.47;;;11.70;99.90;;;;;;4983759;28;20061;-69
2023/05/07 07:38:16;;;;;;;75.78;47.90;;;11.70;99.90;;;;;;4979934;28;20109;-69
2023/05/07 07:40:43;;;;;;;69.43;46.13;;;11.70;99.90;;;;;;4973283;28;20043;-69
2023/05/07 07:43:09;;;;;;;68.30;46.58;;;11.80;99.90;;;;;;4981575;28;20192;-70
2023/05/07 07:45:37;;;;;;;67.53;45.72;;;11.80;99.90;;;;;;4980010;28;20046;-69
2023/05/07 07:48:02;;;;;;;66.63;46.47;;;11.80;99.90;;;;;;4975119;28;20046;-69
2023/05/07 07:50:28;;;;;;;75.32;47.42;;;11.80;99.90;;;;;;4984895;28;20050;-69
2023/05/07 07:52:54;;;;;;;63.80;45.33;;;11.80;99.90;;;;;;4977933;28;20053;-69
2023/05/07 07:55:22;;;;;;;74.55;48.03;;;11.80;99.90;;;;;;4987412;28;20050;-69
2023/05/07 07:57:49;;;;;;;64.50;46.33;;;11.80;99.90;;;;;;4987012;28;20054;-70
2023/05/07 08:00:15;;;;;;;69.47;46.88;;;11.90;99.90;;;;;;4970405;28;20404;-69
2023/05/07 08:02:44;;;;;;;70.32;45.42;;;11.90;99.90;;;;;;4976881;28;20422;-69
2023/05/07 08:05:10;;;;;;;62.90;45.78;;;12.00;99.90;;;;;;4988189;28;20848;-69
2023/05/07 08:07:36;;;;;;;61.80;44.75;;;12.10;99.90;;;;;;4988200;28;20042;-70
2023/05/07 08:10:02;;;;;;;79.63;46.35;;;12.10;99.90;;;;;;4985624;28;20042;-69
2023/05/07 08:12:28;;;;;;;61.25;43.47;;;12.20;99.90;;;;;;4985222;28;20038;-69
2023/05/07 08:14:53;;;;;;;66.57;43.08;;;12.20;99.90;;;;;;4978811;28;20039;-69
2023/05/07 08:17:21;;;;;;;64.05;45.03;;;12.20;99.90;;;;;;4983624;28;20428;-69
2023/05/07 08:19:47;;;;;;;62.33;44.97;;;12.20;99.90;;;;;;4987660;28;20046;-70
2023/05/07 08:22:13;;;;;;;61.40;45.45;;;12.20;99.90;;;;;;4986800;28;20049;-69
2023/05/07 08:24:40;;;;;;;67.72;44.72;;;12.20;99.90;;;;;;4987656;28;20053;-70
2023/05/07 08:27:05;;;;;;;59.75;42.42;;;12.30;99.90;;;;;;4985017;28;20058;-70
2023/05/07 08:29:31;;;;;;;64.32;44.50;;;12.30;99.90;;;;;;4988485;28;20466;-69
2023/05/07 08:31:57;;;;;;;63.00;44.20;;;12.30;99.90;;;;;;4982100;28;20443;-69
2023/05/07 08:34:22;;;;;;;61.75;42.67;;;12.50;99.90;;;;;;4989872;28;20089;-70
2023/05/07 08:36:48;;;;;;;56.75;42.85;;;12.60;99.90;;;;;;4988500;28;20388;-69
2023/05/07 08:39:16;;;;;;;51.53;38.30;;;12.70;99.90;;;;;;4987957;28;20042;-69
2023/05/07 08:41:45;;;;;;;67.50;41.60;;;12.70;99.90;;;;;;4988476;28;20046;-70
2023/05/07 08:44:13;;;;;;;59.95;41.38;;;12.80;99.90;;;;;;4987180;28;20133;-70
2023/05/07 08:46:41;;;;;;;54.97;40.38;;;12.80;99.90;;;;;;4980281;28;20515;-70
2023/05/07 08:49:07;;;;;;;57.80;39.53;;;12.90;99.90;;;;;;4980335;28;20054;-70
2023/05/07 08:51:35;;;;;;;59.55;41.80;;;13.00;99.90;;;;;;4986833;28;20050;-70
2023/05/07 08:54:02;;;;;;;57.17;41.60;;;13.10;99.90;;;;;;4987138;28;20078;-70
2023/05/07 08:56:27;;;;;;;59.03;40.45;;;13.10;99.90;;;;;;4988474;28;20434;-70
2023/05/07 08:58:56;;;;;;;50.47;38.85;;;13.20;99.90;;;;;;4988124;28;20132;-69
2023/05/07 09:01:22;;;;;;;54.85;39.40;;;13.30;99.90;;;;;;4984373;28;20043;-69
2023/05/07 09:03:47;;;;;;;53.97;39.97;;;13.30;99.90;;;;;;4992192;28;20454;-70
2023/05/07 09:06:15;;;;;;;53.90;38.83;;;13.30;99.90;;;;;;4991292;28;20046;-70
2023/05/07 09:08:44;;;;;;;53.53;37.65;;;13.40;99.90;;;;;;4990811;28;20046;-70
2023/05/07 09:11:10;;;;;;;52.25;38.83;;;13.40;99.90;;;;;;4989687;28;20042;-69
2023/05/07 09:13:36;;;;;;;51.72;37.65;;;13.50;99.90;;;;;;4989366;28;20108;-70
2023/05/07 09:16:12;;;;;;;52.58;38.28;;;13.60;99.90;;;;;;4986393;28;20523;-70
2023/05/07 09:18:44;;;;;;;54.20;38.17;;;13.70;99.90;;;;;;4983214;28;20046;-70
2023/05/07 09:21:11;;;;;;;44.17;35.70;;;13.80;99.90;;;;;;4989663;28;20112;-70
2023/05/07 09:23:37;;;;;;;52.03;38.20;;;13.90;99.90;;;;;;4987847;28;20042;-70
2023/05/07 09:26:04;;;;;;;48.35;35.13;;;13.90;99.90;;;;;;4992042;28;20043;-70
2023/05/07 09:28:29;;;;;;;46.35;35.65;;;13.90;99.90;;;;;;4987820;28;20054;-70
2023/05/07 09:30:55;;;;;;;52.08;37.65;;;14.00;99.90;;;;;;4990543;28;20056;-70
2023/05/07 09:33:21;;;;;;;49.80;35.30;;;14.10;99.90;;;;;;4991291;28;20054;-70
2023/05/07 09:35:51;;;;;;;51.58;37.05;;;14.10;99.90;;;;;;4986045;28;20050;-70
2023/05/07 09:38:20;;;;;;;48.15;36.13;;;14.10;99.90;;;;;;4977807;28;20488;-70
2023/05/07 09:40:45;;;;;;;45.75;35.03;;;14.10;99.90;;;;;;4979302;28;20042;-70
2023/05/07 09:43:13;;;;;;;47.90;34.65;;;14.10;99.90;;;;;;4988304;28;20050;-70
2023/05/07 09:45:40;;;;;;;56.25;37.10;;;14.10;99.90;;;;;;4992187;28;20388;-70
2023/05/07 09:48:07;;;;;;;53.50;37.72;;;14.10;99.90;;;;;;4995714;28;20058;-70
2023/05/07 09:50:36;;;;;;;47.75;36.80;;;14.10;99.90;;;;;;4990205;28;20722;-70
2023/05/07 09:53:03;;;;;;;47.00;34.00;;;14.30;99.90;;;;;;4992024;28;20073;-70
2023/05/07 09:55:29;;;;;;;43.88;35.00;;;14.50;99.90;;;;;;4991573;28;20264;-70
2023/05/07 09:57:57;;;;;;;42.92;33.50;;;14.50;99.90;;;;;;4992203;28;20050;-69
2023/05/07 10:00:25;;;;;;;49.78;36.88;;;14.70;99.90;;;;;;4997354;28;20367;-69
2023/05/07 10:02:57;;;;;;;41.42;33.42;;;14.90;99.90;;;;;;4987598;28;20046;-70
2023/05/07 10:05:23;;;;;;;46.90;33.83;;;15.00;99.90;;;;;;4998708;28;20054;-70
2023/05/07 10:07:50;;;;;;;47.40;36.85;;;15.20;99.90;;;;;;4994820;28;20046;-70
2023/05/07 10:10:17;;;;;;;47.50;35.88;;;15.30;99.90;;;;;;4979877;28;20074;-70
2023/05/07 10:12:43;;;;;;;47.47;35.45;;;15.20;99.90;;;;;;4987718;28;20062;-70
2023/05/07 10:15:10;;;;;;;44.03;35.92;;;15.20;99.90;;;;;;4990461;28;20046;-70
2023/05/07 10:17:39;;;;;;;42.05;35.03;;;15.20;99.90;;;;;;4989054;28;20050;-70
2023/05/07 10:20:06;;;;;;;42.88;33.38;;;15.30;99.90;;;;;;4992029;28;20057;-70
2023/05/07 10:22:40;;;;;;;41.97;32.70;;;15.60;99.90;;;;;;4983611;28;20046;-70
2023/05/07 10:25:25;;;;;;;44.08;34.65;;;15.70;99.90;;;;;;4990361;28;20046;-70
2023/05/07 10:27:52;;;;;;;38.08;32.30;;;15.80;99.90;;;;;;4989063;28;20085;-70
2023/05/07 10:30:33;;;;;;;37.58;31.98;;;15.80;99.90;;;;;;4981143;28;20058;-70
2023/05/07 10:33:05;;;;;;;48.78;35.53;;;15.80;99.90;;;;;;4987006;28;20050;-70
2023/05/07 10:35:38;;;;;;;45.05;34.72;;;15.90;99.90;;;;;;4986028;28;20042;-70
2023/05/07 10:38:05;;;;;;;48.08;34.58;;;15.90;99.90;;;;;;4986793;28;20121;-70
2023/05/07 10:40:31;;;;;;;40.38;31.52;;;15.90;99.90;;;;;;4989346;28;20038;-70
2023/05/07 10:43:00;;;;;;;39.38;32.80;;;15.90;99.90;;;;;;4984348;28;20081;-70
2023/05/07 10:45:26;;;;;;;38.33;32.92;;;15.90;99.90;;;;;;4986527;28;20065;-69
2023/05/07 10:48:15;;;;;;;52.58;35.60;;;16.00;99.90;;;;;;4986949;28;20081;-70
2023/05/07 10:50:42;;;;;;;41.60;33.17;;;15.90;99.90;;;;;;4988316;28;20061;-70
2023/05/07 10:53:17;;;;;;;46.17;35.58;;;15.80;99.90;;;;;;4988344;28;20053;-70
2023/05/07 10:55:51;;;;;;;43.10;31.52;;;15.90;99.90;;;;;;4986815;28;20065;-70
2023/05/07 10:58:27;;;;;;;39.63;31.13;;;16.00;99.90;;;;;;4982158;28;20050;-69
2023/05/07 11:00:58;;;;;;;41.03;32.13;;;16.10;99.90;;;;;;4987349;28;20050;-70
2023/05/07 11:03:25;;;;;;;39.20;32.55;;;16.10;99.90;;;;;;4987688;28;20845;-70
2023/05/07 11:06:12;;;;;;;38.28;30.38;;;16.00;99.90;;;;;;4986612;28;20061;-69
2023/05/07 11:08:57;;;;;;;44.22;33.17;;;16.10;99.90;;;;;;4983625;28;20046;-70
2023/05/07 11:11:51;;;;;;;38.90;33.22;;;16.30;99.90;;;;;;4985617;28;20081;-70
2023/05/07 11:14:42;;;;;;;43.85;33.00;;;16.20;99.90;;;;;;4986443;28;20050;-70
2023/05/07 11:17:09;;;;;;;40.95;33.38;;;16.20;99.90;;;;;;4986136;28;20125;-70
2023/05/07 11:19:51;;;;;;;38.90;32.57;;;16.20;99.90;;;;;;4981329;28;20057;-70
2023/05/07 11:22:32;;;;;;;40.13;33.47;;;16.20;99.90;;;;;;4969921;28;20100;-70
2023/05/07 11:25:03;;;;;;;40.33;32.83;;;16.20;99.90;;;;;;4981280;28;20133;-70
2023/05/07 11:27:29;;;;;;;38.78;31.33;;;16.30;99.90;;;;;;4981919;28;20163;-70
2023/05/07 11:29:55;;;;;;;44.13;33.13;;;16.30;99.90;;;;;;4988278;28;20050;-70
2023/05/07 11:32:25;;;;;;;42.10;33.95;;;16.40;99.90;;;;;;4988673;28;20439;-69
2023/05/07 11:34:55;;;;;;;43.42;34.55;;;16.50;99.90;;;;;;4986836;28;20050;-70
2023/05/07 11:37:22;;;;;;;35.58;31.08;;;16.60;99.90;;;;;;4988313;28;20088;-70
2023/05/07 11:39:48;;;;;;;36.63;30.80;;;16.80;99.90;;;;;;4988271;28;20530;-70
2023/05/07 11:42:37;;;;;;;42.97;33.88;;;17.00;99.90;;;;;;4977727;28;20117;-70
2023/05/07 11:45:03;;;;;;;41.20;32.10;;;17.00;99.90;;;;;;4979669;28;20042;-70
2023/05/07 11:47:33;;;;;;;39.55;32.65;;;16.80;99.90;;;;;;4987974;28;20120;-70
2023/05/07 11:50:04;;;;;;;41.22;33.20;;;16.80;99.90;;;;;;4986917;28;20065;-70
2023/05/07 11:52:32;;;;;;;43.92;36.63;;;17.00;99.90;;;;;;4988855;28;20398;-70
2023/05/07 11:54:59;;;;;;;53.58;36.92;;;17.10;99.90;;;;;;4987560;28;20065;-70
2023/05/07 11:57:25;;;;;;;41.85;34.70;;;17.20;99.90;;;;;;4987251;28;20526;-70
2023/05/07 11:59:59;;;;;;;44.60;35.35;;;17.20;99.90;;;;;;4977866;28;20112;-70
2023/05/07 12:02:26;;;;;;;45.65;35.40;;;17.30;99.90;;;;;;4988937;28;20392;-70
2023/05/07 12:04:53;;;;;;;44.80;36.38;;;17.40;99.90;;;;;;4983815;28;20061;-70
2023/05/07 12:07:18;;;;;;;40.63;33.10;;;17.40;99.90;;;;;;4985752;28;20043;-70
2023/05/07 12:09:45;;;;;;;40.83;33.63;;;17.30;99.90;;;;;;4986601;28;20107;-70
2023/05/07 12:12:12;;;;;;;41.53;34.45;;;17.20;99.90;;;;;;4986716;28;20046;-70
2023/05/07 12:14:42;;;;;;;38.47;34.10;;;17.30;99.90;;;;;;4988525;28;20598;-70
2023/05/07 12:17:09;;;;;;;41.95;33.17;;;17.20;99.90;;;;;;4987265;28;20092;-70
2023/05/07 12:19:36;;;;;;;40.55;33.85;;;17.10;99.90;;;;;;4988966;28;20050;-70
2023/05/07 12:22:03;;;;;;;39.67;33.53;;;17.10;99.90;;;;;;4987046;28;20056;-70
2023/05/07 12:24:41;;;;;;;38.63;33.17;;;17.10;99.90;;;;;;4987505;28;20104;-70
2023/05/07 12:27:06;;;;;;;44.40;33.13;;;17.10;99.90;;;;;;4987699;28;20093;-70